Latest Coastal Weather Observations for Troughton Island

IDW60701

Issued at 12:42 am WST Friday 3 July 2015 (issued every 10 minutes, with the page automatically refreshed every 10 minutes)

About coastal observations | Map of coastal stations | Coastal observations for WA | Marine services | Other Formats
Station Details ID: 001007 Name: TROUGHTON ISLAND Lat: -13.75 Lon: 126.15 Height: 6.0 m
Data from the previous 72 hours. | See also: Recent months at Troughton Island
Date/Time
WST
Temp

°C
Wind Pressure Rain
since 9am
mm
Weather Cloud Vis
km
Sea
Height
m
Swell
Dir
 
Speed
knots
Gust
knots
hPa Trend Height
m
Period
s
Dir
03/12:00am 25.7 ESE 8 9 1016.2 - - - - - - - - -
 
Date/Time
WST
Temp

°C
Wind Pressure Rain
since 9am
mm
Weather Cloud Vis
km
Sea
Height
m
Swell
Dir
 
Speed
knots
Gust
knots
hPa Trend Height
m
Period
s
Dir
02/11:32pm 25.8 ESE 8 11 1016.4 - 0.0 - - - - - - -
02/10:32pm 26.1 E 9 11 1016.7 - 0.0 - - - - - - -
02/09:32pm 26.0 ENE 9 11 1016.8 - 0.0 - - - - - - -
02/08:32pm 25.9 ENE 12 13 1016.9 - 0.0 - - - - - - -
02/07:32pm 25.9 ENE 13 15 1016.5 - 0.0 - - - - - - -
02/06:32pm 25.9 ENE 14 17 1015.9 - 0.0 - - - - - - -
02/06:02pm 25.7 NE 13 16 1015.6 - 0.0 - - - - - - -
02/06:00pm 25.8 NE 13 - 1015.5 - - - - - - - - -
02/05:32pm 25.9 NE 14 19 1015.3 - 0.0 - - - - - - -
02/05:02pm 26.1 NE 13 16 1015.1 - 0.0 - - - - - - -
02/04:32pm 26.4 NE 14 17 1014.9 - 0.0 - - - - - - -
02/04:02pm 26.8 NE 14 18 1014.7 - 0.0 - - - - - - -
02/03:32pm 27.5 ENE 15 19 1014.5 - 0.0 - - - - - - -
02/03:00pm 27.1 ENE 17 - 1014.4 - 0.0 - - - - - - -
02/02:32pm 27.5 ENE 16 19 1014.6 - 0.0 - - - - - - -
02/01:02pm 29.1 ENE 12 16 1015.5 - 0.0 - - - - - - -
02/12:32pm 28.7 ENE 11 15 1016.0 - 0.0 - - - - - - -
02/12:02pm 30.3 E 10 13 1016.6 - 0.0 - - - - - - -
02/12:00pm 30.3 E 10 - 1016.5 - - - - - - - - -
02/11:02am 29.2 ESE 12 15 1017.3 - 0.0 - - - - - - -
02/10:32am 29.2 ESE 15 18 1017.7 - 0.0 - - - - - - -
02/10:02am 28.8 ESE 18 22 1017.9 - 0.0 - - - - - - -
02/09:32am 28.5 ESE 15 19 1018.2 - 0.0 - - - - - - -
02/09:02am 27.9 ESE 15 17 1018.6 - 0.0 - - - - - - -
02/09:00am 27.6 ESE 15 - 1018.5 - 0.0 - - - - - - -
02/08:32am 27.4 ESE 16 19 1018.7 - 0.0 - - - - - - -
02/08:02am 26.9 SE 15 18 1018.7 - 0.0 - - - - - - -
02/07:32am 26.4 SE 16 19 1018.4 - 0.0 - - - - - - -
02/07:02am 25.9 SE 17 22 1018.2 - 0.0 - - - - - - -
02/06:32am 25.5 SE 15 19 1017.9 - 0.0 - - - - - - -
02/06:02am 24.9 SE 13 16 1017.6 - 0.0 - - - - - - -
02/06:00am 24.9 SE 13 - 1017.5 - - - - - - - - -
02/05:32am 24.9 SE 13 15 1017.4 - 0.0 - - - - - - -
02/05:02am 24.8 SE 12 15 1017.4 - 0.0 - - - - - - -
02/04:32am 24.4 SSE 10 11 1017.3 - 0.0 - - - - - - -
02/04:02am 23.8 S 8 9 1017.1 - 0.0 - - - - - - -
02/03:32am 24.3 S 8 9 1016.9 - 0.0 - - - - - - -
02/03:02am 24.2 S 8 9 1016.9 - 0.0 - - - - - - -
02/03:00am 24.2 S 8 - 1016.8 - 0.0 - - - - - - -
02/02:02am 23.9 SSE 10 11 1017.3 - 0.0 - - - - - - -
02/01:32am 23.9 SE 7 8 1017.5 - 0.0 - - - - - - -
02/01:02am 24.5 E 6 7 1017.6 - 0.0 - - - - - - -
02/12:32am 24.6 E 7 8 1017.8 - 0.0 - - - - - - -
02/12:02am 24.9 E 7 8 1017.9 - 0.0 - - - - - - -
02/12:00am 24.9 E 7 - 1017.8 - - - - - - - - -
 
Date/Time
WST
Temp

°C
Wind Pressure Rain
since 9am
mm
Weather Cloud Vis
km
Sea
Height
m
Swell
Dir
 
Speed
knots
Gust
knots
hPa Trend Height
m
Period
s
Dir
01/11:32pm 25.2 E 8 9 1017.9 - 0.0 - - - - - - -
01/11:02pm 25.3 E 8 10 1017.7 - 0.0 - - - - - - -
01/10:32pm 25.6 E 9 10 1017.9 - 0.0 - - - - - - -
01/10:02pm 25.6 ENE 10 11 1017.9 - 0.0 - - - - - - -
01/09:32pm 25.8 ENE 12 14 1017.8 - 0.0 - - - - - - -
01/09:02pm 25.9 ENE 12 14 1017.8 - 0.0 - - - - - - -
01/09:00pm 26.0 E 12 - 1017.7 - 0.0 - - - - - - -
01/08:32pm 26.2 E 13 16 1017.7 - 0.0 - - - - - - -
01/07:02pm 26.3 ENE 17 20 1016.7 - 0.0 - - - - - - -
01/06:02pm 25.9 ENE 16 19 1015.9 - 0.0 - - - - - - -
01/06:00pm 25.9 ENE 16 - 1015.8 - - - - - - - - -
01/05:32pm 25.9 ENE 17 21 1015.7 - 0.0 - - - - - - -
01/05:02pm 26.1 ENE 16 19 1015.4 - 0.0 - - - - - - -
01/04:32pm 26.4 NE 15 19 1015.2 - 0.0 - - - - - - -
01/04:02pm 27.1 NE 14 18 1015.1 - 0.0 - - - - - - -
01/03:02pm 27.8 ENE 12 16 1015.0 - 0.0 - - - - - - -
01/03:00pm 27.8 ENE 12 - 1014.9 - 0.0 - - - - - - -
01/02:02pm 28.5 ENE 11 15 1015.1 - 0.0 - - - - - - -
01/01:32pm 28.6 E 12 15 1015.5 - 0.0 - - - - - - -
01/01:02pm 28.9 ENE 7 9 1015.9 - 0.0 - - - - - - -
01/12:32pm 29.6 E 8 10 1016.3 - 0.0 - - - - - - -
01/12:02pm 29.5 E 9 11 1016.9 - 0.0 - - - - - - -
01/12:00pm 29.3 E 9 - 1016.9 - - - - - - - - -
01/11:32am 29.5 ESE 13 16 1017.3 - 0.0 - - - - - - -
01/11:02am 29.4 ESE 15 18 1017.8 - 0.0 - - - - - - -
01/10:32am 28.6 ESE 15 18 1018.3 - 0.0 - - - - - - -
01/10:02am 28.0 ESE 15 19 1018.6 - 0.0 - - - - - - -
01/09:32am 28.1 ESE 15 18 1018.7 - 0.0 - - - - - - -
01/09:02am 27.6 ESE 13 16 1018.9 - 0.0 - - - - - - -
01/09:00am 27.4 ESE 14 - 1018.8 - 0.0 - - - - - - -
01/08:32am 27.2 SE 12 14 1019.1 - 0.0 - - - - - - -
01/08:02am 26.7 ESE 12 16 1019.1 - 0.0 - - - - - - -
01/07:32am 26.3 SE 10 11 1018.9 - 0.0 - - - - - - -
01/07:02am 25.7 SE 12 15 1018.9 - 0.0 - - - - - - -
01/06:32am 24.7 SE 10 11 1018.5 - 0.0 - - - - - - -
01/06:02am 24.1 SSE 10 12 1018.0 - 0.0 - - - - - - -
01/06:00am 24.1 SSE 9 - 1017.9 - - - - - - - - -
01/05:32am 24.1 SSE 9 13 1017.8 - 0.0 - - - - - - -
01/05:02am 23.8 SSE 9 11 1017.5 - 0.0 - - - - - - -
01/04:32am 24.1 S 10 12 1017.4 - 0.0 - - - - - - -
01/04:02am 24.4 S 11 13 1017.5 - 0.0 - - - - - - -
01/03:32am 24.3 S 11 13 1017.5 - 0.0 - - - - - - -
01/03:02am 24.1 SSE 11 12 1017.5 - 0.0 - - - - - - -
01/03:00am 24.2 SSE 11 - 1017.3 - 0.0 - - - - - - -
01/02:32am 24.0 S 10 13 1017.6 - 0.0 - - - - - - -
01/02:02am 24.0 SSE 10 12 1017.8 - 0.0 - - - - - - -
01/01:32am 23.8 SE 10 11 1017.9 - 0.0 - - - - - - -
01/01:02am 23.4 SE 8 9 1018.0 - 0.0 - - - - - - -
01/12:32am 23.6 SE 9 11 1018.1 - 0.0 - - - - - - -
01/12:02am 24.0 SE 10 11 1018.1 - 0.0 - - - - - - -
01/12:00am 23.9 SE 9 - 1018.0 - - - - - - - - -
 
Date/Time
WST
Temp

°C
Wind Pressure Rain
since 9am
mm
Weather Cloud Vis
km
Sea
Height
m
Swell
Dir
 
Speed
knots
Gust
knots
hPa Trend Height
m
Period
s
Dir
30/11:32pm 24.6 SE 8 9 1018.1 - 0.0 - - - - - - -
30/11:02pm 25.2 ESE 8 10 1017.9 - 0.0 - - - - - - -
30/10:32pm 25.8 ENE 10 13 1017.8 - 0.0 - - - - - - -
30/10:02pm 25.8 ENE 11 13 1017.8 - 0.0 - - - - - - -
30/09:32pm 25.8 ENE 11 13 1017.9 - 0.0 - - - - - - -
30/09:00pm 25.9 ENE 12 - 1017.7 - 0.0 - - - - - - -
30/08:32pm 26.0 ENE 13 16 1017.7 - 0.0 - - - - - - -
30/08:02pm 26.1 ENE 15 17 1017.5 - 0.0 - - - - - - -
30/07:32pm 25.9 ENE 16 19 1017.2 - 0.0 - - - - - - -
30/07:02pm 26.0 ENE 16 20 1016.8 - 0.0 - - - - - - -
30/06:32pm 26.0 ENE 16 20 1016.3 - 0.0 - - - - - - -
30/06:02pm 26.1 ENE 16 20 1016.1 - 0.0 - - - - - - -
30/05:32pm 26.3 ENE 16 19 1015.8 - 0.0 - - - - - - -
30/04:32pm 26.9 ENE 15 18 1015.5 - 0.0 - - - - - - -
30/03:32pm 28.0 ENE 11 13 1015.3 - 0.0 - - - - - - -
30/03:02pm 27.7 NE 9 11 1015.2 - 0.0 - - - - - - -
30/03:00pm 27.9 NE 9 - 1015.1 - 0.0 - - - - - - -
30/02:02pm 28.6 NE 7 9 1015.3 - 0.0 - - - - - - -
30/01:02pm 28.4 E 8 9 1015.9 - 0.0 - - - - - - -
30/12:32pm 28.6 E 8 10 1016.4 - 0.0 - - - - - - -
30/12:02pm 28.7 ESE 10 12 1016.9 - 0.0 - - - - - - -
30/12:00pm 28.5 ESE 10 - 1016.8 - - - - - - - - -
30/11:32am 29.1 ESE 11 13 1017.4 - 0.0 - - - - - - -
30/11:02am 29.0 ESE 13 16 1017.9 - 0.0 - - - - - - -
30/10:32am 27.7 SE 9 11 1018.3 - 0.0 - - - - - - -
30/10:02am 27.5 SE 10 11 1018.6 - 0.0 - - - - - - -
30/09:32am 26.8 SE 11 13 1018.8 - 0.0 - - - - - - -
30/09:02am 26.3 SE 12 16 1019.0 - 0.0 - - - - - - -
30/09:00am 26.5 SE 13 - 1018.9 - 0.0 - - - - - - -
30/08:32am 26.2 SE 10 13 1019.0 - 0.0 - - - - - - -
30/08:02am 26.0 SSE 9 11 1018.8 - 0.0 - - - - - - -
30/07:32am 25.5 SSE 8 9 1018.5 - 0.0 - - - - - - -
30/07:02am 24.9 SSE 7 9 1018.1 - 0.0 - - - - - - -
30/06:32am 23.7 SE 8 9 1017.8 - 0.0 - - - - - - -
30/06:02am 23.1 SSE 8 10 1017.5 - 0.0 - - - - - - -
30/06:00am 23.0 SSE 8 - 1017.4 - - - - - - - - -
30/05:32am 23.2 SSE 9 10 1017.1 - 0.0 - - - - - - -
30/05:02am 23.4 SSE 9 11 1016.9 - 0.0 - - - - - - -
30/04:32am 23.5 S 9 10 1016.9 - 0.0 - - - - - - -
30/04:02am 23.4 S 9 11 1016.9 - 0.0 - - - - - - -
30/03:32am 23.2 SSE 9 11 1016.9 - 0.0 - - - - - - -
30/03:02am 23.0 SSE 8 9 1016.9 - 0.0 - - - - - - -
30/03:00am 23.2 SSE 8 - 1016.8 - 0.0 - - - - - - -
30/02:32am 23.2 SSE 8 9 1017.0 - 0.0 - - - - - - -
30/02:02am 23.1 SE 8 9 1017.0 - 0.0 - - - - - - -
30/01:32am 23.3 SE 8 9 1017.2 - 0.0 - - - - - - -
30/01:02am 23.6 SE 9 10 1017.4 - 0.0 - - - - - - -

Other Formats:

Comma delimited format used in spreadsheet applications
http://www.bom.gov.au/fwo/IDW60701/IDW60701.94102.axf

JavaScript Object Notation format (JSON) in row-major order
http://www.bom.gov.au/fwo/IDW60701/IDW60701.94102.json